Time;durP1;ratioP1;P1;durP2;ratioP2;P2;SDS_P1;SDS_P2;PMS_P1;PMS_P2;Temp;Humidity;BMP_temperature;BMP_pressure;BME280_temperature;BME280_humidity;BME280_pressure;Samples;Min_cycle;Max_cycle;Signal;HPM_P1;HPM_P2
2021/03/06 00:00:56;;;;;;;10.33;6.40;;;-0.50;99.90;;;-141.85;100.00;63675.41;4995858;28;20316;-60
2021/03/06 00:03:26;;;;;;;8.83;6.80;;;-0.50;99.90;;;-141.85;100.00;63675.41;4995685;28;20193;-59
2021/03/06 00:05:55;;;;;;;8.93;6.30;;;-0.40;99.90;;;-141.85;100.00;63675.41;4995839;28;20201;-60
2021/03/06 00:08:24;;;;;;;10.67;6.50;;;-0.60;99.90;;;-141.85;100.00;63675.41;4996075;28;20447;-59
2021/03/06 00:10:54;;;;;;;10.43;7.03;;;-0.60;99.90;;;-141.85;100.00;63675.41;4995987;28;20188;-60
2021/03/06 00:13:22;;;;;;;9.30;6.47;;;-0.60;99.90;;;-141.85;100.00;63675.41;4995288;28;20260;-60
2021/03/06 00:15:50;;;;;;;9.60;5.77;;;-0.60;99.90;;;-141.85;100.00;63675.41;4995374;28;20209;-60
2021/03/06 00:18:17;;;;;;;7.97;6.03;;;-0.70;99.90;;;-141.85;100.00;63675.41;4995249;28;20204;-60
2021/03/06 00:20:44;;;;;;;7.30;5.50;;;-0.70;99.90;;;-141.85;100.00;63675.41;4995181;28;20265;-61
2021/03/06 00:23:14;;;;;;;8.17;6.03;;;-0.80;99.90;;;-141.85;100.00;63675.41;4995174;28;20549;-60
2021/03/06 00:25:41;;;;;;;9.10;6.30;;;-0.70;99.90;;;-141.85;100.00;63675.41;4995656;28;20208;-60
2021/03/06 00:28:09;;;;;;;8.60;6.43;;;-0.70;99.90;;;-141.85;100.00;63675.41;4995382;28;20213;-59
2021/03/06 00:30:36;;;;;;;9.07;7.20;;;-0.70;99.90;;;-141.85;100.00;63675.41;5019015;28;20293;-59
2021/03/06 00:33:05;;;;;;;13.10;9.53;;;-0.80;99.90;;;-141.85;100.00;63675.41;5033782;28;20202;-61
2021/03/06 00:35:33;;;;;;;11.60;9.13;;;-0.90;99.90;;;-141.85;100.00;63675.41;5034380;28;20248;-59
2021/03/06 00:38:00;;;;;;;11.63;8.10;;;-0.80;99.90;;;-141.85;100.00;63675.41;5034749;28;20207;-60
2021/03/06 00:40:28;;;;;;;9.50;7.90;;;-0.90;99.90;;;-141.85;100.00;63675.41;5034686;28;20725;-60
2021/03/06 00:42:57;;;;;;;9.07;6.30;;;-0.90;99.90;;;-141.85;100.00;63675.41;5034400;28;20293;-59
2021/03/06 00:45:24;;;;;;;8.70;7.07;;;-1.00;99.90;;;-141.85;100.00;63675.41;5034646;28;20280;-59
2021/03/06 00:47:52;;;;;;;8.47;6.30;;;-1.10;99.90;;;-141.85;100.00;63675.41;5034281;28;20301;-59
2021/03/06 00:50:29;;;;;;;9.30;6.60;;;-1.00;99.90;;;-141.85;100.00;63675.41;5034098;28;20601;-58
2021/03/06 00:52:57;;;;;;;7.13;6.17;;;-1.10;99.90;;;-141.85;100.00;63675.41;5019137;28;20193;-60
2021/03/06 00:55:24;;;;;;;7.70;6.07;;;-1.10;99.90;;;-141.85;100.00;63675.41;5014454;28;20226;-60
2021/03/06 00:57:52;;;;;;;9.47;6.63;;;-1.10;99.90;;;-141.85;100.00;63675.41;5014334;28;20210;-59
2021/03/06 01:00:20;;;;;;;8.50;6.97;;;-1.10;99.90;;;-141.85;100.00;63675.41;5014376;28;20291;-60
2021/03/06 01:02:47;;;;;;;9.30;7.30;;;-1.00;99.90;;;-141.85;100.00;63675.41;5014126;28;20207;-59
2021/03/06 01:05:15;;;;;;;11.10;6.40;;;-0.90;99.90;;;-141.85;100.00;63675.41;5013564;28;20663;-59
2021/03/06 01:07:42;;;;;;;9.60;6.63;;;-0.90;99.90;;;-141.85;100.00;63675.41;5013530;28;20295;-60
2021/03/06 01:10:14;;;;;;;8.70;7.17;;;-0.90;99.90;;;-141.85;100.00;63675.41;5014253;28;20263;-60
2021/03/06 01:12:41;;;;;;;8.20;6.27;;;-0.90;99.90;;;-141.85;100.00;63675.41;5013953;28;20605;-60
2021/03/06 01:15:11;;;;;;;9.20;8.20;;;-0.90;99.90;;;-141.85;100.00;63675.41;5014003;28;20289;-61
2021/03/06 01:17:38;;;;;;;10.27;7.17;;;-0.90;99.90;;;-141.85;100.00;63675.41;5013933;28;20202;-59
2021/03/06 01:20:07;;;;;;;8.80;7.03;;;-1.00;99.90;;;-141.85;100.00;63675.41;5014208;28;20262;-59
2021/03/06 01:22:35;;;;;;;10.40;7.77;;;-1.10;99.90;;;-141.85;100.00;63675.41;5020258;28;20222;-60
2021/03/06 01:25:03;;;;;;;11.63;7.70;;;-1.10;99.90;;;-141.85;100.00;63675.41;5020890;28;20222;-60
2021/03/06 01:27:30;;;;;;;7.40;6.53;;;-1.10;99.90;;;-141.85;100.00;63675.41;5022095;28;20545;-60
2021/03/06 01:29:58;;;;;;;7.97;6.47;;;-1.10;99.90;;;-141.85;100.00;63675.41;5006447;28;20563;-60
2021/03/06 01:32:25;;;;;;;10.30;6.67;;;-1.20;99.90;;;-141.85;100.00;63675.41;4998341;28;20209;-59
2021/03/06 01:34:53;;;;;;;9.37;6.40;;;-1.20;99.90;;;-141.85;100.00;63675.41;4997987;28;20268;-59
2021/03/06 01:37:20;;;;;;;9.07;6.10;;;-1.20;99.90;;;-141.85;100.00;63675.41;5001579;28;20657;-60
2021/03/06 01:39:48;;;;;;;7.03;5.53;;;-1.30;99.90;;;-141.85;100.00;63675.41;4993317;28;20207;-60
2021/03/06 01:42:16;;;;;;;6.67;5.40;;;-1.30;99.90;;;-141.85;100.00;63675.41;4993173;28;20304;-60
2021/03/06 01:44:43;;;;;;;7.07;6.00;;;-1.20;99.90;;;-141.85;100.00;63675.41;4993135;28;20258;-59
2021/03/06 01:47:10;;;;;;;7.70;5.33;;;-1.20;99.90;;;-141.85;100.00;63675.41;4993486;28;20761;-60
2021/03/06 01:49:38;;;;;;;7.70;5.90;;;-1.20;99.90;;;-141.85;100.00;63675.41;4996261;28;20207;-60
2021/03/06 01:52:06;;;;;;;8.13;6.37;;;-1.30;99.90;;;-141.85;100.00;63675.41;5004835;28;20600;-61
2021/03/06 01:54:35;;;;;;;9.93;5.80;;;-1.40;99.90;;;-141.85;100.00;63675.41;5013507;28;20226;-59
2021/03/06 01:57:02;;;;;;;7.00;5.83;;;-1.40;99.90;;;-141.85;100.00;63675.41;5013705;28;20207;-60
2021/03/06 01:59:30;;;;;;;7.03;5.43;;;-1.40;99.90;;;-141.85;100.00;63675.41;5013110;28;20237;-60
2021/03/06 02:01:59;;;;;;;8.83;5.70;;;-1.40;99.90;;;-141.85;100.00;63675.41;5012735;28;20691;-60
2021/03/06 02:04:27;;;;;;;11.07;5.67;;;-1.40;99.90;;;-141.85;100.00;63675.41;5013475;28;20256;-59
2021/03/06 02:06:55;;;;;;;6.93;5.30;;;-1.40;99.90;;;-141.85;100.00;63675.41;5013298;28;20289;-60
2021/03/06 02:09:23;;;;;;;8.17;5.70;;;-1.30;99.90;;;-141.85;100.00;63675.41;5013370;28;20673;-60
2021/03/06 02:12:02;;;;;;;6.53;5.60;;;-1.30;99.90;;;-141.85;100.00;63675.41;5013438;28;20260;-59
2021/03/06 02:15:02;;;;;;;8.73;6.77;;;-1.30;99.90;;;-141.85;100.00;63675.41;5013239;28;20189;-60
2021/03/06 02:17:42;;;;;;;11.03;8.67;;;-1.30;99.90;;;-141.85;100.00;63675.41;5012553;28;20187;-59
2021/03/06 02:20:45;;;;;;;10.20;8.20;;;-1.40;99.90;;;-141.85;100.00;63675.41;5013291;28;20190;-60
2021/03/06 02:24:01;;;;;;;13.53;8.37;;;-1.50;99.90;;;-141.85;100.00;63675.41;5013189;28;20195;-60
2021/03/06 02:26:44;;;;;;;8.80;7.60;;;-1.50;99.90;;;-141.85;100.00;63675.41;5013024;28;20245;-59
2021/03/06 02:29:39;;;;;;;9.03;6.60;;;-1.40;99.90;;;-141.85;100.00;63675.41;5013198;28;20217;-61
2021/03/06 02:32:18;;;;;;;8.93;7.33;;;-1.30;99.90;;;-141.85;100.00;63675.41;5012855;28;20273;-60
2021/03/06 02:34:55;;;;;;;7.93;6.63;;;-1.20;99.90;;;-141.85;100.00;63675.41;5012818;28;20234;-59
2021/03/06 02:37:27;;;;;;;8.13;6.33;;;-1.20;99.90;;;-141.85;100.00;63675.41;5013063;28;20222;-60
2021/03/06 02:39:57;;;;;;;9.17;6.03;;;-1.30;99.90;;;-141.85;100.00;63675.41;5012517;28;20731;-60
2021/03/06 02:42:29;;;;;;;8.00;6.03;;;-1.40;99.90;;;-141.85;100.00;63675.41;5012936;28;20213;-60
2021/03/06 02:44:58;;;;;;;7.27;6.00;;;-1.40;99.90;;;-141.85;100.00;63675.41;5012899;28;20260;-61
2021/03/06 02:47:27;;;;;;;6.03;5.20;;;-1.40;99.90;;;-141.85;100.00;63675.41;5012777;28;20259;-60
2021/03/06 02:49:56;;;;;;;6.70;5.67;;;-1.30;99.90;;;-141.85;100.00;63675.41;5012967;28;20226;-59
2021/03/06 02:52:24;;;;;;;9.83;6.97;;;-1.30;99.90;;;-141.85;100.00;63675.41;5012831;28;20207;-60
2021/03/06 02:54:54;;;;;;;9.00;7.30;;;-1.40;99.90;;;-141.85;100.00;63675.41;5012827;28;20209;-60
2021/03/06 02:58:10;;;;;;;9.47;7.30;;;-1.30;99.90;;;-141.85;100.00;63675.41;5012952;28;20202;-61
2021/03/06 03:00:45;;;;;;;8.90;7.53;;;-1.50;99.90;;;-141.85;100.00;63675.41;5012790;28;20280;-60
2021/03/06 03:03:33;;;;;;;9.67;7.60;;;-1.50;99.90;;;-141.85;100.00;63675.41;5012427;28;20191;-60
2021/03/06 03:06:14;;;;;;;9.70;7.63;;;-1.60;99.90;;;-141.85;100.00;63675.41;5012754;28;20286;-60
2021/03/06 03:08:59;;;;;;;9.17;8.23;;;-1.60;99.90;;;-141.85;100.00;63675.41;5012930;28;20186;-60
2021/03/06 03:11:39;;;;;;;12.57;7.60;;;-1.40;99.90;;;-141.85;100.00;63675.41;5012840;28;20274;-59
2021/03/06 03:14:12;;;;;;;7.13;6.37;;;-1.40;99.90;;;-141.85;100.00;63675.41;5012748;28;20191;-59
2021/03/06 03:16:50;;;;;;;8.83;6.20;;;-1.40;99.90;;;-141.85;100.00;63675.41;5012536;28;20230;-59
2021/03/06 03:19:30;;;;;;;8.83;6.30;;;-1.40;99.90;;;-141.85;100.00;63675.41;5012429;28;20190;-60
2021/03/06 03:22:02;;;;;;;9.13;6.40;;;-1.50;99.90;;;-141.85;100.00;63675.41;5012350;28;20620;-60
2021/03/06 03:24:36;;;;;;;6.97;6.27;;;-1.50;99.90;;;-141.85;100.00;63675.41;5012405;28;20229;-60
2021/03/06 03:27:06;;;;;;;9.83;6.53;;;-1.50;99.90;;;-141.85;100.00;63675.41;5012652;28;20299;-60
2021/03/06 03:29:35;;;;;;;7.97;5.47;;;-1.60;99.90;;;-141.85;100.00;63675.41;5007203;28;20205;-60
2021/03/06 03:32:05;;;;;;;8.50;6.43;;;-1.60;99.90;;;-141.85;100.00;63675.41;5001518;28;20207;-60
2021/03/06 03:34:36;;;;;;;8.87;7.17;;;-1.60;99.90;;;-141.85;100.00;63675.41;5000373;28;20234;-59
2021/03/06 03:37:05;;;;;;;8.77;6.57;;;-1.70;99.90;;;-141.85;100.00;63675.41;5003534;28;20294;-60
2021/03/06 03:39:32;;;;;;;11.20;6.70;;;-1.80;99.90;;;-141.85;100.00;63675.41;4996380;28;20613;-59
2021/03/06 03:42:01;;;;;;;8.50;6.53;;;-1.80;99.90;;;-141.85;100.00;63675.41;4996385;28;20226;-60
2021/03/06 03:44:30;;;;;;;8.93;7.50;;;-1.80;99.90;;;-141.85;100.00;63675.41;5000482;28;20595;-60
2021/03/06 03:46:58;;;;;;;8.47;6.20;;;-1.90;99.90;;;-141.85;100.00;63675.41;5003296;28;20737;-60
2021/03/06 03:49:26;;;;;;;8.43;6.97;;;-1.90;99.90;;;-141.85;100.00;63675.41;5000341;28;20262;-59
2021/03/06 03:51:55;;;;;;;10.10;7.90;;;-1.80;99.90;;;-141.85;100.00;63675.41;5006518;28;20202;-60
2021/03/06 03:54:22;;;;;;;7.47;6.67;;;-1.90;99.90;;;-141.85;100.00;63675.41;5016210;28;20229;-60
2021/03/06 03:56:50;;;;;;;7.73;6.60;;;-1.90;99.90;;;-141.85;100.00;63675.41;5015580;28;20712;-60
2021/03/06 03:59:17;;;;;;;9.03;7.00;;;-2.00;99.90;;;-141.85;100.00;63675.41;5015431;28;20216;-60
2021/03/06 04:01:46;;;;;;;10.20;7.13;;;-2.00;99.90;;;-141.85;100.00;63675.41;5014857;28;20234;-59
2021/03/06 04:04:30;;;;;;;9.17;6.70;;;-2.10;99.90;;;-141.85;100.00;63675.41;5015516;28;20611;-59
2021/03/06 04:07:00;;;;;;;8.37;6.20;;;-1.90;99.90;;;-141.85;100.00;63675.41;5015423;28;20264;-60
2021/03/06 04:09:27;;;;;;;9.47;7.03;;;-1.90;99.90;;;-141.85;100.00;63675.41;5015967;28;20241;-60
2021/03/06 04:11:55;;;;;;;9.43;7.53;;;-1.90;99.90;;;-141.85;100.00;63675.41;5015868;28;20301;-60
2021/03/06 04:14:22;;;;;;;11.67;6.73;;;-1.80;99.90;;;-141.85;100.00;63675.41;5015121;28;20349;-59
2021/03/06 04:16:49;;;;;;;8.30;6.20;;;-1.80;99.90;;;-141.85;100.00;63675.41;5015249;28;20288;-59
2021/03/06 04:19:17;;;;;;;10.43;6.63;;;-1.90;99.90;;;-141.85;100.00;63675.41;5015459;28;20217;-59
2021/03/06 04:21:45;;;;;;;11.43;6.87;;;-1.80;99.90;;;-141.85;100.00;63675.41;5014751;28;20293;-60
2021/03/06 04:24:12;;;;;;;8.47;6.70;;;-1.70;99.90;;;-141.85;100.00;63675.41;5015395;28;20207;-59
2021/03/06 04:26:50;;;;;;;9.37;7.27;;;-1.70;99.90;;;-141.85;100.00;63675.41;5015256;28;20197;-59
2021/03/06 04:29:19;;;;;;;8.47;6.63;;;-1.80;99.90;;;-141.85;100.00;63675.41;5014746;28;20229;-60
2021/03/06 04:31:46;;;;;;;8.40;6.60;;;-1.70;99.90;;;-141.85;100.00;63675.41;5014856;28;20230;-59
2021/03/06 04:34:14;;;;;;;9.30;7.80;;;-1.70;99.90;;;-141.85;100.00;63675.41;5014783;28;20336;-60
2021/03/06 04:36:41;;;;;;;11.00;7.63;;;-1.60;99.90;;;-141.85;100.00;63675.41;5014788;28;20278;-59
2021/03/06 04:39:09;;;;;;;11.10;9.37;;;-1.60;99.90;;;-141.85;100.00;63675.41;5014944;28;20229;-59
2021/03/06 04:41:36;;;;;;;13.83;9.50;;;-1.70;99.90;;;-141.85;100.00;63675.41;5014681;28;20334;-60
2021/03/06 04:44:05;;;;;;;11.93;10.20;;;-1.80;99.90;;;-141.85;100.00;63675.41;5014811;28;20292;-59
2021/03/06 04:46:32;;;;;;;13.23;10.10;;;-1.80;99.90;;;-141.85;100.00;63675.41;5014574;28;20670;-59
2021/03/06 04:49:02;;;;;;;11.37;8.77;;;-1.80;99.90;;;-141.85;100.00;63675.41;5014901;28;20204;-60
2021/03/06 04:51:30;;;;;;;10.63;8.87;;;-1.80;99.90;;;-141.85;100.00;63675.41;5014581;28;20205;-60
2021/03/06 04:53:57;;;;;;;14.33;11.97;;;-1.80;99.90;;;-141.85;100.00;63675.41;5014814;28;20233;-59
2021/03/06 04:56:26;;;;;;;14.13;10.70;;;-1.70;99.90;;;-141.85;100.00;63675.41;5014479;28;20709;-60
2021/03/06 04:58:53;;;;;;;12.17;9.63;;;-1.70;99.90;;;-141.85;100.00;63675.41;5014176;28;20205;-61
2021/03/06 05:01:20;;;;;;;10.70;8.23;;;-1.80;99.90;;;-141.85;100.00;63675.41;5014221;28;20211;-60
2021/03/06 05:03:48;;;;;;;12.90;8.17;;;-1.80;99.90;;;-141.85;100.00;63675.41;5014646;28;20289;-60
2021/03/06 05:06:16;;;;;;;9.77;8.03;;;-1.80;99.90;;;-141.85;100.00;63675.41;5014413;28;20307;-60
2021/03/06 05:08:42;;;;;;;9.87;7.47;;;-1.80;99.90;;;-141.85;100.00;63675.41;5014289;28;20301;-60
2021/03/06 05:11:10;;;;;;;10.27;7.60;;;-1.80;99.90;;;-141.85;100.00;63675.41;5014242;28;20252;-61
2021/03/06 05:13:38;;;;;;;10.63;7.60;;;-1.90;99.90;;;-141.85;100.00;63675.41;5014247;28;20285;-60
2021/03/06 05:16:06;;;;;;;9.87;7.43;;;-2.00;99.90;;;-141.85;100.00;63675.41;5013961;28;20269;-60
2021/03/06 05:18:34;;;;;;;11.10;6.63;;;-2.00;99.90;;;-141.85;100.00;63675.41;5014449;28;20284;-59
2021/03/06 05:21:01;;;;;;;9.60;6.83;;;-2.10;99.90;;;-141.85;100.00;63675.41;5013925;28;20237;-59
2021/03/06 05:23:29;;;;;;;9.27;6.90;;;-2.00;99.90;;;-141.85;100.00;63675.41;5013936;28;20794;-60
2021/03/06 05:25:56;;;;;;;9.10;6.60;;;-1.90;99.90;;;-141.85;100.00;63675.41;5013857;28;20264;-60
2021/03/06 05:28:24;;;;;;;11.40;7.50;;;-1.90;99.90;;;-141.85;100.00;63675.41;5014050;28;20230;-60
2021/03/06 05:30:52;;;;;;;10.37;7.17;;;-2.00;99.90;;;-141.85;100.00;63675.41;5013770;28;20233;-60
2021/03/06 05:33:20;;;;;;;9.37;7.10;;;-1.70;99.90;;;-141.85;100.00;63675.41;5013739;28;20610;-61
2021/03/06 05:35:48;;;;;;;9.67;7.00;;;-1.80;99.90;;;-141.85;100.00;63675.41;5013612;28;20260;-60
2021/03/06 05:38:15;;;;;;;7.67;6.40;;;-1.70;99.90;;;-141.85;100.00;63675.41;5013391;28;20356;-59
2021/03/06 05:40:46;;;;;;;10.40;7.07;;;-1.80;99.90;;;-141.85;100.00;63675.41;5013579;28;20310;-60
2021/03/06 05:43:14;;;;;;;11.13;7.13;;;-1.90;99.90;;;-141.85;100.00;63675.41;5013508;28;20211;-61
2021/03/06 05:45:46;;;;;;;9.97;7.63;;;-1.90;99.90;;;-141.85;100.00;63675.41;5013602;28;20206;-60
2021/03/06 05:48:16;;;;;;;11.67;9.13;;;-1.90;99.90;;;-141.85;100.00;63675.41;5013558;28;20195;-60
2021/03/06 05:50:45;;;;;;;11.07;8.73;;;-1.90;99.90;;;-141.85;100.00;63675.41;5013797;28;20257;-61
2021/03/06 05:53:15;;;;;;;9.83;7.83;;;-1.90;99.90;;;-141.85;100.00;63675.41;5013013;28;20289;-60
2021/03/06 05:55:49;;;;;;;10.90;8.00;;;-1.90;99.90;;;-141.85;100.00;63675.41;5013713;28;20226;-59
2021/03/06 05:58:19;;;;;;;11.43;8.10;;;-2.00;99.90;;;-141.85;100.00;63675.41;5013280;28;20280;-60
2021/03/06 06:00:46;;;;;;;9.37;7.80;;;-2.00;99.90;;;-141.85;100.00;63675.41;5012963;28;20295;-60
2021/03/06 06:03:18;;;;;;;9.83;8.37;;;-1.90;99.90;;;-141.85;100.00;63675.41;5013590;28;20261;-61
2021/03/06 06:05:45;;;;;;;13.83;8.03;;;-1.80;99.90;;;-141.85;100.00;63675.41;5013393;28;20244;-61
2021/03/06 06:08:15;;;;;;;8.80;7.17;;;-1.70;99.90;;;-141.85;100.00;63675.41;5013207;28;20300;-60
2021/03/06 06:10:43;;;;;;;9.57;7.20;;;-1.70;99.90;;;-141.85;100.00;63675.41;5013780;28;20232;-60
2021/03/06 06:13:10;;;;;;;12.70;7.60;;;-1.70;99.90;;;-141.85;100.00;63675.41;5013282;28;20232;-60
2021/03/06 06:15:37;;;;;;;9.80;7.53;;;-1.60;99.90;;;-141.85;100.00;63675.41;5012875;28;20294;-60
2021/03/06 06:18:05;;;;;;;11.47;7.87;;;-1.50;99.90;;;-141.85;100.00;63675.41;5013241;28;20242;-61
2021/03/06 06:20:38;;;;;;;10.47;7.70;;;-1.60;99.90;;;-141.85;100.00;63675.41;5013400;28;20209;-61
2021/03/06 06:23:10;;;;;;;9.93;7.17;;;-1.60;99.90;;;-141.85;100.00;63675.41;5013158;28;20247;-60
2021/03/06 06:25:42;;;;;;;10.63;7.60;;;-1.60;99.90;;;-141.85;100.00;63675.41;5013190;28;20196;-60
2021/03/06 06:28:23;;;;;;;9.63;7.43;;;-1.60;99.90;;;-141.85;100.00;63675.41;5013032;28;20189;-60
2021/03/06 06:31:09;;;;;;;11.47;7.47;;;-1.60;99.90;;;-141.85;100.00;63675.41;5012616;28;20238;-60
2021/03/06 06:33:36;;;;;;;13.13;8.87;;;-1.40;99.90;;;-141.85;100.00;63675.41;5012974;28;20228;-60
2021/03/06 06:36:05;;;;;;;11.33;8.07;;;-1.40;99.90;;;-141.85;100.00;63675.41;5012522;28;20597;-60
2021/03/06 06:38:42;;;;;;;14.20;9.87;;;-1.30;99.90;;;-141.85;100.00;63675.41;5006555;28;20651;-60
2021/03/06 06:41:09;;;;;;;12.57;9.57;;;-1.10;99.90;;;-141.85;100.00;63675.41;4997742;28;20636;-61
2021/03/06 06:43:36;;;;;;;11.90;8.63;;;-0.90;99.90;;;-141.85;100.00;63675.41;4996669;28;20222;-60
2021/03/06 06:46:03;;;;;;;13.70;9.70;;;-0.80;99.90;;;-141.85;100.00;63675.41;5004091;28;20599;-60
2021/03/06 06:48:31;;;;;;;12.77;10.20;;;-0.80;99.90;;;-141.85;100.00;63675.41;5006750;28;20716;-61
2021/03/06 06:51:09;;;;;;;13.07;9.07;;;-0.70;99.90;;;-141.85;100.00;63675.41;5001530;28;20666;-60
2021/03/06 06:53:36;;;;;;;11.27;8.57;;;-0.60;99.90;;;-141.85;100.00;63675.41;4998616;28;20198;-61
2021/03/06 06:56:22;;;;;;;12.73;8.83;;;-0.50;99.90;;;-141.85;100.00;63675.41;5006914;28;20239;-60
2021/03/06 06:58:49;;;;;;;13.07;8.50;;;-0.40;99.90;;;-141.85;100.00;63675.41;4998678;28;20230;-61
2021/03/06 07:01:29;;;;;;;12.77;8.23;;;-0.40;99.90;;;-141.85;100.00;63675.41;5003894;28;20211;-60
2021/03/06 07:04:06;;;;;;;12.40;7.93;;;-0.30;99.90;;;-141.85;100.00;63675.41;5008183;28;20205;-60
2021/03/06 07:06:35;;;;;;;13.27;8.03;;;-0.20;99.90;;;-141.85;100.00;63675.41;5002186;28;20711;-61
2021/03/06 07:09:12;;;;;;;13.90;8.17;;;-0.20;99.90;;;-141.85;100.00;63675.41;4997109;28;20239;-61
2021/03/06 07:11:42;;;;;;;10.33;7.80;;;-0.10;99.90;;;-141.85;100.00;63675.41;4997015;28;20533;-61
2021/03/06 07:14:09;;;;;;;11.13;8.27;;;0.00;99.90;;;-141.85;100.00;63675.41;4996620;28;20222;-61
2021/03/06 07:17:00;;;;;;;22.83;17.43;;;0.10;99.90;;;-141.85;100.00;63675.41;4997141;28;20200;-61
2021/03/06 07:19:30;;;;;;;15.57;10.90;;;0.20;99.90;;;-141.85;100.00;63675.41;4997263;28;20194;-60
2021/03/06 07:21:59;;;;;;;12.90;8.87;;;0.30;99.90;;;-141.85;100.00;63675.41;4996797;28;20288;-60
2021/03/06 07:24:27;;;;;;;14.53;9.43;;;0.40;99.90;;;-141.85;100.00;63675.41;4996858;28;20208;-60
2021/03/06 07:26:55;;;;;;;14.43;8.97;;;0.40;99.90;;;-141.85;100.00;63675.41;4996670;28;20291;-61
2021/03/06 07:29:24;;;;;;;12.93;9.27;;;0.50;99.90;;;-141.85;100.00;63675.41;4996561;28;20213;-61
2021/03/06 07:31:54;;;;;;;14.07;9.73;;;0.60;99.90;;;-141.85;100.00;63675.41;4996957;28;20204;-62
2021/03/06 07:34:25;;;;;;;13.40;11.10;;;0.70;99.90;;;-141.85;100.00;63675.41;4996754;28;20188;-61
2021/03/06 07:37:04;;;;;;;16.40;13.30;;;0.80;99.90;;;-141.85;100.00;63675.41;4998350;28;20293;-61
2021/03/06 07:39:39;;;;;;;11.03;9.00;;;0.90;99.90;;;-141.85;100.00;63675.41;5007154;28;20237;-61
2021/03/06 07:42:29;;;;;;;11.90;7.97;;;1.00;99.90;;;-141.85;100.00;63675.41;5004886;28;20259;-61
2021/03/06 07:44:57;;;;;;;12.00;8.03;;;1.10;99.90;;;-141.85;100.00;63675.41;4995972;28;20231;-61
2021/03/06 07:47:32;;;;;;;10.17;7.47;;;1.20;99.90;;;-141.85;100.00;63675.41;4998829;28;20661;-61
2021/03/06 07:50:01;;;;;;;12.47;7.30;;;1.30;99.90;;;-141.85;100.00;63675.41;5000610;28;20194;-62
2021/03/06 07:52:32;;;;;;;8.07;6.80;;;1.40;99.90;;;-141.85;100.00;63675.41;5011904;28;20323;-62
2021/03/06 07:55:03;;;;;;;11.43;7.00;;;1.50;99.90;;;-141.85;100.00;63675.41;5012882;28;20282;-60
2021/03/06 07:57:30;;;;;;;9.57;6.63;;;1.60;99.90;;;-141.85;100.00;63675.41;5000221;28;20206;-61
2021/03/06 07:59:57;;;;;;;8.07;6.33;;;1.80;99.90;;;-141.85;100.00;63675.41;4995996;28;20203;-61
2021/03/06 08:02:37;;;;;;;12.50;7.20;;;1.90;99.90;;;-141.85;100.00;63675.41;4996293;28;20696;-61
2021/03/06 08:05:47;;;;;;;9.70;6.83;;;2.10;99.90;;;-141.85;100.00;63675.41;4997686;28;20195;-61
2021/03/06 08:08:56;;;;;;;7.50;6.00;;;2.10;99.90;;;-141.85;100.00;63675.41;5006771;28;20269;-61
2021/03/06 08:11:25;;;;;;;8.77;5.50;;;2.20;99.90;;;-141.85;100.00;63675.41;5007239;28;20713;-60
2021/03/06 08:13:55;;;;;;;8.47;5.37;;;2.40;99.90;;;-141.85;100.00;63675.41;5014942;28;20723;-60
2021/03/06 08:16:36;;;;;;;8.17;5.73;;;2.40;99.90;;;-141.85;100.00;63675.41;5014670;28;20693;-60
2021/03/06 08:19:25;;;;;;;8.67;6.20;;;2.60;99.90;;;-141.85;100.00;63675.41;5015715;28;20202;-60
2021/03/06 08:21:56;;;;;;;11.17;6.27;;;2.50;99.90;;;-141.85;100.00;63675.41;5015337;28;20194;-61
2021/03/06 08:24:29;;;;;;;9.40;6.10;;;2.60;99.90;;;-141.85;100.00;63675.41;5015500;28;20241;-62
2021/03/06 08:27:17;;;;;;;10.73;6.00;;;2.60;99.90;;;-141.85;100.00;63675.41;5014726;28;20627;-63
2021/03/06 08:29:48;;;;;;;8.30;6.27;;;2.70;99.90;;;-141.85;100.00;63675.41;5000942;28;20274;-61
2021/03/06 08:32:26;;;;;;;12.63;6.87;;;2.70;99.90;;;-141.85;100.00;63675.41;5008691;28;20211;-60
2021/03/06 08:34:56;;;;;;;10.03;5.93;;;2.70;99.90;;;-141.85;100.00;63675.41;5007941;28;20607;-71
2021/03/06 08:37:34;;;;;;;8.10;5.90;;;2.70;99.90;;;-141.85;100.00;63675.41;5000802;28;20211;-69
2021/03/06 08:40:19;;;;;;;14.47;7.10;;;2.80;99.90;;;-141.85;100.00;63675.41;5003640;28;20662;-70
2021/03/06 08:42:49;;;;;;;9.70;6.67;;;2.90;99.90;;;-141.85;100.00;63675.41;4994406;28;20306;-70
2021/03/06 08:45:23;;;;;;;8.10;6.10;;;3.00;99.90;;;-141.85;100.00;63675.41;4995296;28;20203;-70
2021/03/06 08:47:55;;;;;;;7.30;6.00;;;3.10;99.90;;;-141.85;100.00;63675.41;4995046;28;20593;-60
2021/03/06 08:50:24;;;;;;;8.53;5.80;;;3.20;99.90;;;-141.85;100.00;63675.41;5005963;28;20552;-67
2021/03/06 08:52:58;;;;;;;7.33;5.87;;;3.30;99.90;;;-141.85;100.00;63675.41;5009204;28;20281;-65
2021/03/06 08:55:29;;;;;;;5.63;4.67;;;3.40;99.90;;;-141.85;100.00;63675.41;5014501;28;20635;-65
2021/03/06 08:58:00;;;;;;;6.03;5.17;;;3.50;99.90;;;-141.85;100.00;63675.41;5014054;28;20206;-65
2021/03/06 09:00:30;;;;;;;7.37;6.17;;;3.50;99.90;;;-141.85;100.00;63675.41;5006278;28;20206;-64
2021/03/06 09:03:09;;;;;;;9.43;6.60;;;3.50;99.90;;;-141.85;100.00;63675.41;5012630;28;20326;-62
2021/03/06 09:05:36;;;;;;;6.83;5.67;;;3.70;99.90;;;-141.85;100.00;63675.41;5014179;28;20197;-64
2021/03/06 09:08:04;;;;;;;8.40;6.43;;;3.70;99.90;;;-141.85;100.00;63675.41;5007676;28;20267;-62
2021/03/06 09:10:39;;;;;;;7.20;4.93;;;3.80;99.90;;;-141.85;100.00;63675.41;5006643;28;20629;-62
2021/03/06 09:13:13;;;;;;;5.60;4.47;;;3.90;99.90;;;-141.85;100.00;63675.41;5014079;28;20271;-62
2021/03/06 09:15:48;;;;;;;9.90;6.00;;;4.00;99.90;;;-141.85;100.00;63675.41;5014464;28;20283;-63
2021/03/06 09:18:19;;;;;;;6.20;4.90;;;4.10;99.90;;;-141.85;100.00;63675.41;5007810;28;20234;-62
2021/03/06 09:20:52;;;;;;;7.07;4.97;;;4.30;99.90;;;-141.85;100.00;63675.41;5013827;28;20204;-63
2021/03/06 09:23:40;;;;;;;6.13;4.57;;;4.30;99.90;;;-141.85;100.00;63675.41;5013772;28;20262;-62
2021/03/06 09:26:12;;;;;;;5.63;3.77;;;4.40;99.90;;;-141.85;100.00;63675.41;5013918;28;20259;-62
2021/03/06 09:28:40;;;;;;;6.27;3.87;;;4.30;99.90;;;-141.85;100.00;63675.41;5000917;28;20197;-63
2021/03/06 09:31:13;;;;;;;5.47;3.50;;;4.40;99.90;;;-141.85;100.00;63675.41;5011710;28;20299;-63
2021/03/06 09:33:42;;;;;;;5.50;3.53;;;4.50;99.90;;;-141.85;100.00;63675.41;5013815;28;20187;-63
2021/03/06 09:36:11;;;;;;;7.30;3.93;;;4.50;99.90;;;-141.85;100.00;63675.41;5013353;28;20323;-63
2021/03/06 09:38:46;;;;;;;4.17;3.43;;;4.70;99.90;;;-141.85;100.00;63675.41;5004018;28;20631;-61
2021/03/06 09:41:17;;;;;;;5.87;3.50;;;4.80;99.90;;;-141.85;100.00;63675.41;5012514;28;20211;-62
2021/03/06 09:43:50;;;;;;;4.67;3.33;;;4.90;99.90;;;-141.85;100.00;63675.41;5013314;28;20223;-62
2021/03/06 09:46:20;;;;;;;5.10;3.40;;;5.00;99.90;;;-141.85;100.00;63675.41;5005431;28;20912;-61
2021/03/06 09:48:50;;;;;;;7.03;3.20;;;5.00;99.90;;;-141.85;100.00;63675.41;5013379;28;20275;-63
2021/03/06 09:51:18;;;;;;;4.37;3.17;;;5.10;99.90;;;-141.85;100.00;63675.41;5007080;28;20615;-62
2021/03/06 09:53:56;;;;;;;4.73;3.33;;;5.10;99.90;;;-141.85;100.00;63675.41;4995822;28;20214;-63
2021/03/06 09:56:25;;;;;;;5.37;2.60;;;5.20;99.90;;;-141.85;100.00;63675.41;5003155;28;20621;-62
2021/03/06 09:59:02;;;;;;;3.73;2.70;;;5.20;99.90;;;-141.85;100.00;63675.41;5007810;28;20236;-61
2021/03/06 10:01:31;;;;;;;4.43;2.37;;;5.40;99.90;;;-141.85;100.00;63675.41;5011582;28;20186;-62
2021/03/06 10:04:07;;;;;;;3.77;3.00;;;5.40;99.90;;;-141.85;100.00;63675.41;4999474;28;20312;-62
2021/03/06 10:06:36;;;;;;;5.90;2.90;;;5.50;99.90;;;-141.85;100.00;63675.41;5012071;28;20205;-63
2021/03/06 10:09:09;;;;;;;5.10;3.20;;;5.60;99.90;;;-141.85;100.00;63675.41;5013399;28;20198;-62
2021/03/06 10:11:40;;;;;;;4.93;3.27;;;5.70;99.90;;;-141.85;100.00;63675.41;5007990;28;20193;-62
2021/03/06 10:14:10;;;;;;;5.07;3.00;;;5.70;99.90;;;-141.85;100.00;63675.41;5001770;28;20209;-61
2021/03/06 10:16:50;;;;;;;5.73;3.20;;;5.80;99.90;;;-141.85;100.00;63675.41;4993685;28;20300;-62
2021/03/06 10:19:20;;;;;;;5.00;2.60;;;5.90;99.90;;;-141.85;100.00;63675.41;4993063;28;20846;-62